sensor_id;sensor_type;location;lat;lon;timestamp;P1;durP1;ratioP1;P2;durP2;ratioP2
21480;SDS011;10902;48.158;8.634;2022-09-25T00:01:19;42.70;;;24.88;;
21480;SDS011;10902;48.158;8.634;2022-09-25T00:03:45;39.10;;;23.55;;
21480;SDS011;10902;48.158;8.634;2022-09-25T00:06:15;37.33;;;22.77;;
21480;SDS011;10902;48.158;8.634;2022-09-25T00:08:43;43.10;;;25.33;;
21480;SDS011;10902;48.158;8.634;2022-09-25T00:11:13;39.55;;;25.02;;
21480;SDS011;10902;48.158;8.634;2022-09-25T00:13:52;40.15;;;24.67;;
21480;SDS011;10902;48.158;8.634;2022-09-25T00:16:20;44.20;;;24.45;;
21480;SDS011;10902;48.158;8.634;2022-09-25T00:18:48;41.33;;;24.88;;
21480;SDS011;10902;48.158;8.634;2022-09-25T00:21:33;37.85;;;24.40;;
21480;SDS011;10902;48.158;8.634;2022-09-25T00:24:01;43.30;;;24.85;;
21480;SDS011;10902;48.158;8.634;2022-09-25T00:26:29;39.17;;;24.92;;
21480;SDS011;10902;48.158;8.634;2022-09-25T00:28:57;38.10;;;22.73;;
21480;SDS011;10902;48.158;8.634;2022-09-25T00:31:25;46.58;;;27.98;;
21480;SDS011;10902;48.158;8.634;2022-09-25T00:34:10;51.90;;;29.60;;
21480;SDS011;10902;48.158;8.634;2022-09-25T00:36:35;50.20;;;28.98;;
21480;SDS011;10902;48.158;8.634;2022-09-25T00:39:01;47.17;;;26.85;;
21480;SDS011;10902;48.158;8.634;2022-09-25T00:41:27;54.28;;;27.38;;
21480;SDS011;10902;48.158;8.634;2022-09-25T00:43:57;52.03;;;29.02;;
21480;SDS011;10902;48.158;8.634;2022-09-25T00:46:26;49.63;;;27.65;;
21480;SDS011;10902;48.158;8.634;2022-09-25T00:48:54;103.18;;;31.60;;
21480;SDS011;10902;48.158;8.634;2022-09-25T00:51:29;36.97;;;22.83;;
21480;SDS011;10902;48.158;8.634;2022-09-25T00:54:01;44.22;;;24.63;;
21480;SDS011;10902;48.158;8.634;2022-09-25T00:56:30;39.53;;;22.33;;
21480;SDS011;10902;48.158;8.634;2022-09-25T00:59:02;36.00;;;20.60;;
21480;SDS011;10902;48.158;8.634;2022-09-25T01:01:28;36.65;;;16.50;;
21480;SDS011;10902;48.158;8.634;2022-09-25T01:03:54;86.38;;;22.83;;
21480;SDS011;10902;48.158;8.634;2022-09-25T01:06:21;51.75;;;19.50;;
21480;SDS011;10902;48.158;8.634;2022-09-25T01:08:49;34.45;;;20.92;;
21480;SDS011;10902;48.158;8.634;2022-09-25T01:11:15;51.67;;;27.42;;
21480;SDS011;10902;48.158;8.634;2022-09-25T01:13:40;53.08;;;27.05;;
21480;SDS011;10902;48.158;8.634;2022-09-25T01:16:13;561.90;;;69.40;;
21480;SDS011;10902;48.158;8.634;2022-09-25T01:18:52;1144.43;;;103.32;;
21480;SDS011;10902;48.158;8.634;2022-09-25T01:21:42;636.20;;;64.80;;
21480;SDS011;10902;48.158;8.634;2022-09-25T01:32:22;886.25;;;85.78;;
21480;SDS011;10902;48.158;8.634;2022-09-25T01:37:42;788.40;;;84.57;;
21480;SDS011;10902;48.158;8.634;2022-09-25T01:40:21;1017.20;;;103.45;;
21480;SDS011;10902;48.158;8.634;2022-09-25T01:42:57;814.70;;;87.80;;
21480;SDS011;10902;48.158;8.634;2022-09-25T01:45:37;1096.22;;;115.88;;
21480;SDS011;10902;48.158;8.634;2022-09-25T01:48:13;1319.85;;;134.68;;
21480;SDS011;10902;48.158;8.634;2022-09-25T01:50:45;1344.50;;;141.38;;
21480;SDS011;10902;48.158;8.634;2022-09-25T01:53:15;1315.07;;;151.00;;
21480;SDS011;10902;48.158;8.634;2022-09-25T01:55:47;625.08;;;77.50;;
21480;SDS011;10902;48.158;8.634;2022-09-25T01:58:28;103.75;;;36.00;;
21480;SDS011;10902;48.158;8.634;2022-09-25T02:01:02;66.22;;;29.58;;
21480;SDS011;10902;48.158;8.634;2022-09-25T02:06:16;35.83;;;22.35;;
21480;SDS011;10902;48.158;8.634;2022-09-25T02:08:54;43.13;;;23.13;;
21480;SDS011;10902;48.158;8.634;2022-09-25T02:11:25;39.40;;;21.38;;
21480;SDS011;10902;48.158;8.634;2022-09-25T02:13:56;47.30;;;24.05;;
21480;SDS011;10902;48.158;8.634;2022-09-25T02:16:34;43.03;;;22.65;;
21480;SDS011;10902;48.158;8.634;2022-09-25T02:19:01;26.88;;;16.98;;
21480;SDS011;10902;48.158;8.634;2022-09-25T02:21:55;35.78;;;20.30;;
21480;SDS011;10902;48.158;8.634;2022-09-25T02:26:56;47.85;;;23.67;;
21480;SDS011;10902;48.158;8.634;2022-09-25T02:29:22;48.58;;;24.35;;
21480;SDS011;10902;48.158;8.634;2022-09-25T02:31:56;52.35;;;26.30;;
21480;SDS011;10902;48.158;8.634;2022-09-25T02:34:26;52.50;;;27.02;;
21480;SDS011;10902;48.158;8.634;2022-09-25T02:36:52;48.78;;;25.98;;
21480;SDS011;10902;48.158;8.634;2022-09-25T02:39:19;61.83;;;31.65;;
21480;SDS011;10902;48.158;8.634;2022-09-25T02:41:57;40.25;;;23.08;;
21480;SDS011;10902;48.158;8.634;2022-09-25T02:47:56;45.95;;;23.80;;
21480;SDS011;10902;48.158;8.634;2022-09-25T02:53:43;48.17;;;23.63;;
21480;SDS011;10902;48.158;8.634;2022-09-25T02:58:56;39.03;;;22.83;;
21480;SDS011;10902;48.158;8.634;2022-09-25T03:01:30;48.50;;;25.27;;
21480;SDS011;10902;48.158;8.634;2022-09-25T03:03:56;52.20;;;24.10;;
21480;SDS011;10902;48.158;8.634;2022-09-25T03:06:24;44.88;;;24.45;;
21480;SDS011;10902;48.158;8.634;2022-09-25T03:08:52;43.80;;;23.35;;
21480;SDS011;10902;48.158;8.634;2022-09-25T03:11:20;42.85;;;20.75;;
21480;SDS011;10902;48.158;8.634;2022-09-25T03:13:54;41.22;;;22.40;;
21480;SDS011;10902;48.158;8.634;2022-09-25T03:16:25;48.63;;;25.30;;
21480;SDS011;10902;48.158;8.634;2022-09-25T03:19:05;49.33;;;24.85;;
21480;SDS011;10902;48.158;8.634;2022-09-25T03:21:31;56.85;;;26.67;;
21480;SDS011;10902;48.158;8.634;2022-09-25T03:23:57;51.85;;;26.75;;
21480;SDS011;10902;48.158;8.634;2022-09-25T03:26:23;55.85;;;26.90;;
21480;SDS011;10902;48.158;8.634;2022-09-25T03:28:50;52.00;;;26.55;;
21480;SDS011;10902;48.158;8.634;2022-09-25T03:31:16;116.90;;;30.40;;
21480;SDS011;10902;48.158;8.634;2022-09-25T03:33:42;437.23;;;53.65;;
21480;SDS011;10902;48.158;8.634;2022-09-25T03:36:15;271.38;;;40.92;;
21480;SDS011;10902;48.158;8.634;2022-09-25T03:38:43;1181.85;;;131.38;;
21480;SDS011;10902;48.158;8.634;2022-09-25T03:41:10;193.57;;;36.63;;
21480;SDS011;10902;48.158;8.634;2022-09-25T03:43:37;696.13;;;75.20;;
21480;SDS011;10902;48.158;8.634;2022-09-25T03:46:05;864.10;;;87.38;;
21480;SDS011;10902;48.158;8.634;2022-09-25T03:48:32;936.10;;;101.70;;
21480;SDS011;10902;48.158;8.634;2022-09-25T03:50:58;616.53;;;65.78;;
21480;SDS011;10902;48.158;8.634;2022-09-25T03:53:24;78.18;;;27.45;;
21480;SDS011;10902;48.158;8.634;2022-09-25T03:55:51;1031.80;;;108.95;;
21480;SDS011;10902;48.158;8.634;2022-09-25T03:58:17;1137.22;;;118.32;;
21480;SDS011;10902;48.158;8.634;2022-09-25T04:00:43;711.35;;;72.30;;
21480;SDS011;10902;48.158;8.634;2022-09-25T04:03:10;1007.85;;;100.88;;
21480;SDS011;10902;48.158;8.634;2022-09-25T04:05:36;1008.78;;;101.55;;
21480;SDS011;10902;48.158;8.634;2022-09-25T04:08:02;926.80;;;99.63;;
21480;SDS011;10902;48.158;8.634;2022-09-25T04:10:28;881.90;;;99.80;;
21480;SDS011;10902;48.158;8.634;2022-09-25T04:12:54;147.65;;;33.17;;
21480;SDS011;10902;48.158;8.634;2022-09-25T04:15:20;337.65;;;51.92;;
21480;SDS011;10902;48.158;8.634;2022-09-25T04:17:49;556.33;;;73.53;;
21480;SDS011;10902;48.158;8.634;2022-09-25T04:20:16;184.20;;;37.45;;
21480;SDS011;10902;48.158;8.634;2022-09-25T04:22:43;265.58;;;43.28;;
21480;SDS011;10902;48.158;8.634;2022-09-25T04:25:08;56.72;;;25.17;;
21480;SDS011;10902;48.158;8.634;2022-09-25T04:27:35;55.28;;;26.55;;
21480;SDS011;10902;48.158;8.634;2022-09-25T04:30:01;55.05;;;26.17;;
21480;SDS011;10902;48.158;8.634;2022-09-25T04:32:28;63.90;;;28.52;;
21480;SDS011;10902;48.158;8.634;2022-09-25T04:35:12;67.03;;;27.60;;
21480;SDS011;10902;48.158;8.634;2022-09-25T04:37:38;48.42;;;24.17;;
21480;SDS011;10902;48.158;8.634;2022-09-25T04:40:03;52.63;;;24.60;;
21480;SDS011;10902;48.158;8.634;2022-09-25T04:42:29;57.75;;;26.25;;
21480;SDS011;10902;48.158;8.634;2022-09-25T04:44:55;49.17;;;25.98;;
21480;SDS011;10902;48.158;8.634;2022-09-25T04:47:22;54.28;;;26.70;;
21480;SDS011;10902;48.158;8.634;2022-09-25T04:49:49;53.08;;;27.42;;
21480;SDS011;10902;48.158;8.634;2022-09-25T04:52:16;52.67;;;26.55;;
21480;SDS011;10902;48.158;8.634;2022-09-25T04:54:43;55.78;;;25.83;;
21480;SDS011;10902;48.158;8.634;2022-09-25T04:57:09;56.95;;;26.02;;
21480;SDS011;10902;48.158;8.634;2022-09-25T04:59:38;60.60;;;27.45;;
21480;SDS011;10902;48.158;8.634;2022-09-25T05:02:04;54.03;;;26.42;;
21480;SDS011;10902;48.158;8.634;2022-09-25T05:04:30;53.08;;;25.30;;
21480;SDS011;10902;48.158;8.634;2022-09-25T05:06:56;48.53;;;25.33;;
21480;SDS011;10902;48.158;8.634;2022-09-25T05:09:21;52.80;;;25.25;;
21480;SDS011;10902;48.158;8.634;2022-09-25T05:11:47;56.28;;;25.50;;
21480;SDS011;10902;48.158;8.634;2022-09-25T05:14:12;45.40;;;25.27;;
21480;SDS011;10902;48.158;8.634;2022-09-25T05:16:38;49.30;;;25.70;;
21480;SDS011;10902;48.158;8.634;2022-09-25T05:19:04;50.92;;;25.77;;
21480;SDS011;10902;48.158;8.634;2022-09-25T05:21:29;48.58;;;25.35;;
21480;SDS011;10902;48.158;8.634;2022-09-25T05:23:56;50.85;;;25.50;;
21480;SDS011;10902;48.158;8.634;2022-09-25T05:26:22;50.30;;;25.73;;
21480;SDS011;10902;48.158;8.634;2022-09-25T05:28:48;53.75;;;25.92;;
21480;SDS011;10902;48.158;8.634;2022-09-25T05:31:14;58.22;;;27.38;;
21480;SDS011;10902;48.158;8.634;2022-09-25T05:33:41;47.97;;;24.85;;
21480;SDS011;10902;48.158;8.634;2022-09-25T05:36:07;54.72;;;27.25;;
21480;SDS011;10902;48.158;8.634;2022-09-25T05:38:34;60.83;;;28.63;;
21480;SDS011;10902;48.158;8.634;2022-09-25T05:41:05;56.25;;;28.20;;
21480;SDS011;10902;48.158;8.634;2022-09-25T05:43:32;57.17;;;28.13;;
21480;SDS011;10902;48.158;8.634;2022-09-25T05:45:58;55.15;;;27.25;;
21480;SDS011;10902;48.158;8.634;2022-09-25T05:48:24;54.50;;;28.02;;
21480;SDS011;10902;48.158;8.634;2022-09-25T05:50:53;59.42;;;28.42;;
21480;SDS011;10902;48.158;8.634;2022-09-25T05:53:20;54.50;;;27.13;;
21480;SDS011;10902;48.158;8.634;2022-09-25T05:55:49;51.08;;;24.98;;
21480;SDS011;10902;48.158;8.634;2022-09-25T05:58:15;49.05;;;26.67;;
21480;SDS011;10902;48.158;8.634;2022-09-25T06:00:40;50.08;;;26.55;;
21480;SDS011;10902;48.158;8.634;2022-09-25T06:03:06;55.03;;;26.33;;
21480;SDS011;10902;48.158;8.634;2022-09-25T06:05:32;51.38;;;27.02;;
21480;SDS011;10902;48.158;8.634;2022-09-25T06:07:58;50.22;;;28.15;;
21480;SDS011;10902;48.158;8.634;2022-09-25T06:10:23;39.50;;;24.20;;
21480;SDS011;10902;48.158;8.634;2022-09-25T06:12:59;48.08;;;25.13;;
21480;SDS011;10902;48.158;8.634;2022-09-25T06:15:29;44.05;;;24.40;;
21480;SDS011;10902;48.158;8.634;2022-09-25T06:18:05;42.90;;;25.02;;
21480;SDS011;10902;48.158;8.634;2022-09-25T06:20:32;43.10;;;24.65;;
21480;SDS011;10902;48.158;8.634;2022-09-25T06:22:59;37.90;;;23.92;;
21480;SDS011;10902;48.158;8.634;2022-09-25T06:25:26;38.58;;;23.30;;
21480;SDS011;10902;48.158;8.634;2022-09-25T06:27:55;44.50;;;25.50;;
21480;SDS011;10902;48.158;8.634;2022-09-25T06:30:22;34.92;;;24.00;;
21480;SDS011;10902;48.158;8.634;2022-09-25T06:32:55;34.53;;;21.88;;
21480;SDS011;10902;48.158;8.634;2022-09-25T06:35:45;33.13;;;21.30;;
21480;SDS011;10902;48.158;8.634;2022-09-25T06:38:12;32.47;;;21.23;;
21480;SDS011;10902;48.158;8.634;2022-09-25T06:40:39;30.88;;;20.52;;
21480;SDS011;10902;48.158;8.634;2022-09-25T06:43:06;31.55;;;20.50;;
21480;SDS011;10902;48.158;8.634;2022-09-25T06:45:34;25.50;;;18.38;;
21480;SDS011;10902;48.158;8.634;2022-09-25T06:50:40;29.20;;;19.15;;
21480;SDS011;10902;48.158;8.634;2022-09-25T06:53:09;25.52;;;17.65;;
21480;SDS011;10902;48.158;8.634;2022-09-25T06:55:35;27.85;;;18.27;;
21480;SDS011;10902;48.158;8.634;2022-09-25T06:58:01;30.30;;;19.70;;
21480;SDS011;10902;48.158;8.634;2022-09-25T07:00:28;28.23;;;19.52;;
21480;SDS011;10902;48.158;8.634;2022-09-25T07:02:58;28.90;;;18.73;;
21480;SDS011;10902;48.158;8.634;2022-09-25T07:05:43;27.38;;;18.13;;
21480;SDS011;10902;48.158;8.634;2022-09-25T07:08:11;27.17;;;18.40;;
21480;SDS011;10902;48.158;8.634;2022-09-25T07:10:38;26.55;;;18.63;;
21480;SDS011;10902;48.158;8.634;2022-09-25T07:13:05;25.85;;;18.52;;
21480;SDS011;10902;48.158;8.634;2022-09-25T07:15:30;27.83;;;18.52;;
21480;SDS011;10902;48.158;8.634;2022-09-25T07:17:56;24.40;;;17.17;;
21480;SDS011;10902;48.158;8.634;2022-09-25T07:20:21;22.50;;;16.48;;
21480;SDS011;10902;48.158;8.634;2022-09-25T07:22:47;26.55;;;18.05;;
21480;SDS011;10902;48.158;8.634;2022-09-25T07:25:13;27.23;;;18.05;;
21480;SDS011;10902;48.158;8.634;2022-09-25T07:27:38;25.85;;;19.10;;
21480;SDS011;10902;48.158;8.634;2022-09-25T07:30:04;25.13;;;18.40;;
21480;SDS011;10902;48.158;8.634;2022-09-25T07:32:32;25.27;;;18.40;;
21480;SDS011;10902;48.158;8.634;2022-09-25T07:34:58;27.45;;;17.05;;
21480;SDS011;10902;48.158;8.634;2022-09-25T07:37:24;25.45;;;19.23;;
21480;SDS011;10902;48.158;8.634;2022-09-25T07:39:49;22.58;;;16.50;;
21480;SDS011;10902;48.158;8.634;2022-09-25T07:42:15;26.90;;;18.98;;
21480;SDS011;10902;48.158;8.634;2022-09-25T07:44:41;25.40;;;17.25;;
21480;SDS011;10902;48.158;8.634;2022-09-25T07:47:07;26.45;;;18.67;;
21480;SDS011;10902;48.158;8.634;2022-09-25T07:49:33;24.55;;;18.17;;
21480;SDS011;10902;48.158;8.634;2022-09-25T07:51:59;24.67;;;18.13;;
21480;SDS011;10902;48.158;8.634;2022-09-25T07:54:25;22.67;;;17.77;;
21480;SDS011;10902;48.158;8.634;2022-09-25T07:56:51;23.20;;;17.85;;
21480;SDS011;10902;48.158;8.634;2022-09-25T07:59:17;27.10;;;18.77;;
21480;SDS011;10902;48.158;8.634;2022-09-25T08:01:42;20.38;;;16.00;;
21480;SDS011;10902;48.158;8.634;2022-09-25T08:04:08;16.77;;;13.05;;
21480;SDS011;10902;48.158;8.634;2022-09-25T08:06:33;18.30;;;14.48;;
21480;SDS011;10902;48.158;8.634;2022-09-25T08:08:59;16.48;;;12.02;;
21480;SDS011;10902;48.158;8.634;2022-09-25T08:11:25;16.80;;;12.30;;
21480;SDS011;10902;48.158;8.634;2022-09-25T08:13:52;15.00;;;11.27;;
21480;SDS011;10902;48.158;8.634;2022-09-25T08:16:18;14.93;;;12.73;;
21480;SDS011;10902;48.158;8.634;2022-09-25T08:18:46;13.13;;;9.95;;
21480;SDS011;10902;48.158;8.634;2022-09-25T08:21:14;11.27;;;9.48;;
21480;SDS011;10902;48.158;8.634;2022-09-25T08:23:41;9.85;;;8.15;;
21480;SDS011;10902;48.158;8.634;2022-09-25T08:26:07;9.80;;;7.60;;
21480;SDS011;10902;48.158;8.634;2022-09-25T08:28:33;10.57;;;8.55;;
21480;SDS011;10902;48.158;8.634;2022-09-25T08:30:59;7.93;;;6.88;;
21480;SDS011;10902;48.158;8.634;2022-09-25T08:33:28;9.57;;;7.45;;
21480;SDS011;10902;48.158;8.634;2022-09-25T08:35:58;8.75;;;6.57;;
21480;SDS011;10902;48.158;8.634;2022-09-25T08:38:26;8.25;;;6.40;;
21480;SDS011;10902;48.158;8.634;2022-09-25T08:43:21;7.97;;;5.90;;
21480;SDS011;10902;48.158;8.634;2022-09-25T08:45:48;6.93;;;5.85;;
21480;SDS011;10902;48.158;8.634;2022-09-25T08:48:35;8.45;;;6.85;;
21480;SDS011;10902;48.158;8.634;2022-09-25T08:51:26;6.82;;;5.53;;
21480;SDS011;10902;48.158;8.634;2022-09-25T08:53:53;7.85;;;5.30;;
21480;SDS011;10902;48.158;8.634;2022-09-25T08:56:18;7.32;;;5.75;;
21480;SDS011;10902;48.158;8.634;2022-09-25T08:59:09;8.40;;;6.68;;
21480;SDS011;10902;48.158;8.634;2022-09-25T09:01:51;6.90;;;5.18;;
21480;SDS011;10902;48.158;8.634;2022-09-25T09:04:24;7.32;;;5.63;;
21480;SDS011;10902;48.158;8.634;2022-09-25T09:06:57;6.35;;;4.88;;
21480;SDS011;10902;48.158;8.634;2022-09-25T09:09:46;7.47;;;5.38;;
21480;SDS011;10902;48.158;8.634;2022-09-25T09:12:45;7.20;;;5.70;;
21480;SDS011;10902;48.158;8.634;2022-09-25T09:17:45;6.60;;;5.22;;
21480;SDS011;10902;48.158;8.634;2022-09-25T09:20:22;8.35;;;5.80;;
21480;SDS011;10902;48.158;8.634;2022-09-25T09:22:57;9.55;;;6.15;;
21480;SDS011;10902;48.158;8.634;2022-09-25T09:35:55;8.43;;;6.00;;
21480;SDS011;10902;48.158;8.634;2022-09-25T09:39:00;7.65;;;5.25;;
21480;SDS011;10902;48.158;8.634;2022-09-25T09:50:02;6.25;;;4.50;;
21480;SDS011;10902;48.158;8.634;2022-09-25T09:52:53;8.25;;;5.13;;
21480;SDS011;10902;48.158;8.634;2022-09-25T09:55:39;10.15;;;7.72;;
21480;SDS011;10902;48.158;8.634;2022-09-25T09:58:09;13.45;;;9.90;;
21480;SDS011;10902;48.158;8.634;2022-09-25T10:01:14;7.05;;;4.65;;
21480;SDS011;10902;48.158;8.634;2022-09-25T10:03:43;8.63;;;4.90;;
21480;SDS011;10902;48.158;8.634;2022-09-25T10:06:14;7.15;;;4.50;;
21480;SDS011;10902;48.158;8.634;2022-09-25T10:08:41;6.95;;;5.07;;
21480;SDS011;10902;48.158;8.634;2022-09-25T10:11:14;6.75;;;4.45;;
21480;SDS011;10902;48.158;8.634;2022-09-25T10:13:41;6.30;;;4.20;;
21480;SDS011;10902;48.158;8.634;2022-09-25T10:16:12;6.60;;;3.80;;
21480;SDS011;10902;48.158;8.634;2022-09-25T10:27:41;6.07;;;3.70;;
21480;SDS011;10902;48.158;8.634;2022-09-25T10:35:21;6.07;;;3.65;;
21480;SDS011;10902;48.158;8.634;2022-09-25T10:37:56;6.18;;;3.45;;
21480;SDS011;10902;48.158;8.634;2022-09-25T10:40:33;5.57;;;3.53;;
21480;SDS011;10902;48.158;8.634;2022-09-25T10:43:05;5.68;;;3.58;;
21480;SDS011;10902;48.158;8.634;2022-09-25T10:45:44;8.50;;;4.20;;
21480;SDS011;10902;48.158;8.634;2022-09-25T10:48:26;6.40;;;4.25;;
21480;SDS011;10902;48.158;8.634;2022-09-25T10:51:15;6.22;;;3.92;;
21480;SDS011;10902;48.158;8.634;2022-09-25T10:53:42;9.07;;;4.10;;
21480;SDS011;10902;48.158;8.634;2022-09-25T10:56:09;7.38;;;4.53;;
21480;SDS011;10902;48.158;8.634;2022-09-25T11:01:27;8.00;;;5.07;;
21480;SDS011;10902;48.158;8.634;2022-09-25T11:04:10;9.23;;;5.45;;
21480;SDS011;10902;48.158;8.634;2022-09-25T11:06:43;9.63;;;5.60;;
21480;SDS011;10902;48.158;8.634;2022-09-25T11:09:17;10.90;;;6.72;;
21480;SDS011;10902;48.158;8.634;2022-09-25T11:11:45;10.10;;;6.97;;
21480;SDS011;10902;48.158;8.634;2022-09-25T11:14:17;10.50;;;7.07;;
21480;SDS011;10902;48.158;8.634;2022-09-25T11:16:58;9.77;;;6.43;;
21480;SDS011;10902;48.158;8.634;2022-09-25T11:25:05;9.55;;;6.70;;
21480;SDS011;10902;48.158;8.634;2022-09-25T11:30:11;8.45;;;5.40;;
21480;SDS011;10902;48.158;8.634;2022-09-25T11:32:51;8.63;;;5.63;;
21480;SDS011;10902;48.158;8.634;2022-09-25T11:38:18;9.63;;;5.85;;
21480;SDS011;10902;48.158;8.634;2022-09-25T11:41:17;8.95;;;6.13;;
21480;SDS011;10902;48.158;8.634;2022-09-25T11:46:58;9.52;;;5.65;;
21480;SDS011;10902;48.158;8.634;2022-09-25T11:49:35;10.38;;;5.55;;
21480;SDS011;10902;48.158;8.634;2022-09-25T11:52:27;7.70;;;5.13;;
21480;SDS011;10902;48.158;8.634;2022-09-25T11:58:03;8.90;;;5.55;;
21480;SDS011;10902;48.158;8.634;2022-09-25T12:00:53;9.70;;;5.38;;
21480;SDS011;10902;48.158;8.634;2022-09-25T12:11:56;9.45;;;6.03;;
21480;SDS011;10902;48.158;8.634;2022-09-25T12:36:18;8.95;;;5.60;;
21480;SDS011;10902;48.158;8.634;2022-09-25T12:41:34;9.13;;;5.85;;
21480;SDS011;10902;48.158;8.634;2022-09-25T12:44:11;9.10;;;5.80;;
21480;SDS011;10902;48.158;8.634;2022-09-25T12:47:04;7.45;;;5.32;;
21480;SDS011;10902;48.158;8.634;2022-09-25T12:49:43;8.88;;;5.63;;
21480;SDS011;10902;48.158;8.634;2022-09-25T12:52:23;7.85;;;5.22;;
21480;SDS011;10902;48.158;8.634;2022-09-25T12:57:33;8.77;;;5.53;;
21480;SDS011;10902;48.158;8.634;2022-09-25T13:00:07;8.82;;;5.50;;
21480;SDS011;10902;48.158;8.634;2022-09-25T13:02:48;7.22;;;4.93;;
21480;SDS011;10902;48.158;8.634;2022-09-25T13:11:07;7.43;;;5.00;;
21480;SDS011;10902;48.158;8.634;2022-09-25T13:13:40;9.82;;;4.85;;
21480;SDS011;10902;48.158;8.634;2022-09-25T13:16:09;7.28;;;4.85;;
21480;SDS011;10902;48.158;8.634;2022-09-25T13:18:40;7.28;;;4.93;;
21480;SDS011;10902;48.158;8.634;2022-09-25T13:24:00;7.47;;;4.32;;
21480;SDS011;10902;48.158;8.634;2022-09-25T13:26:32;8.85;;;4.22;;
21480;SDS011;10902;48.158;8.634;2022-09-25T13:32:05;8.40;;;4.85;;
21480;SDS011;10902;48.158;8.634;2022-09-25T13:34:39;6.50;;;4.30;;
21480;SDS011;10902;48.158;8.634;2022-09-25T13:37:06;6.30;;;4.28;;
21480;SDS011;10902;48.158;8.634;2022-09-25T13:39:41;5.78;;;4.18;;
21480;SDS011;10902;48.158;8.634;2022-09-25T13:42:30;6.13;;;4.18;;
21480;SDS011;10902;48.158;8.634;2022-09-25T13:45:04;7.97;;;4.38;;
21480;SDS011;10902;48.158;8.634;2022-09-25T14:03:00;8.23;;;4.90;;
21480;SDS011;10902;48.158;8.634;2022-09-25T14:05:30;6.65;;;3.97;;
21480;SDS011;10902;48.158;8.634;2022-09-25T14:08:05;8.77;;;4.95;;
21480;SDS011;10902;48.158;8.634;2022-09-25T14:10:32;9.52;;;4.90;;
21480;SDS011;10902;48.158;8.634;2022-09-25T14:12:59;8.30;;;4.93;;
21480;SDS011;10902;48.158;8.634;2022-09-25T14:17:59;7.38;;;4.75;;
21480;SDS011;10902;48.158;8.634;2022-09-25T14:20:31;8.25;;;4.93;;
21480;SDS011;10902;48.158;8.634;2022-09-25T14:23:10;8.10;;;5.00;;
21480;SDS011;10902;48.158;8.634;2022-09-25T14:25:57;7.55;;;4.65;;
21480;SDS011;10902;48.158;8.634;2022-09-25T14:28:31;7.18;;;4.63;;
21480;SDS011;10902;48.158;8.634;2022-09-25T14:31:11;6.40;;;4.65;;
21480;SDS011;10902;48.158;8.634;2022-09-25T14:39:12;8.40;;;4.72;;
21480;SDS011;10902;48.158;8.634;2022-09-25T14:41:57;7.25;;;5.13;;
21480;SDS011;10902;48.158;8.634;2022-09-25T14:44:51;7.43;;;4.65;;
21480;SDS011;10902;48.158;8.634;2022-09-25T14:47:21;6.90;;;5.15;;
21480;SDS011;10902;48.158;8.634;2022-09-25T14:49:52;8.55;;;5.30;;
21480;SDS011;10902;48.158;8.634;2022-09-25T14:52:21;8.60;;;4.75;;
21480;SDS011;10902;48.158;8.634;2022-09-25T14:54:51;6.80;;;4.40;;
21480;SDS011;10902;48.158;8.634;2022-09-25T14:57:20;8.50;;;4.80;;
21480;SDS011;10902;48.158;8.634;2022-09-25T14:59:53;7.05;;;4.97;;
21480;SDS011;10902;48.158;8.634;2022-09-25T15:04:57;7.80;;;6.03;;
21480;SDS011;10902;48.158;8.634;2022-09-25T15:07:43;8.60;;;5.50;;
21480;SDS011;10902;48.158;8.634;2022-09-25T15:13:31;6.82;;;4.60;;
21480;SDS011;10902;48.158;8.634;2022-09-25T15:15:55;7.65;;;4.45;;
21480;SDS011;10902;48.158;8.634;2022-09-25T15:18:41;7.60;;;4.30;;
21480;SDS011;10902;48.158;8.634;2022-09-25T15:21:30;6.40;;;3.92;;
21480;SDS011;10902;48.158;8.634;2022-09-25T15:24:02;7.40;;;4.68;;
21480;SDS011;10902;48.158;8.634;2022-09-25T15:26:31;9.32;;;5.00;;
21480;SDS011;10902;48.158;8.634;2022-09-25T15:29:03;7.65;;;4.68;;
21480;SDS011;10902;48.158;8.634;2022-09-25T15:31:45;7.25;;;4.50;;
21480;SDS011;10902;48.158;8.634;2022-09-25T15:34:14;5.82;;;4.20;;
21480;SDS011;10902;48.158;8.634;2022-09-25T15:36:46;8.35;;;4.95;;
21480;SDS011;10902;48.158;8.634;2022-09-25T15:39:12;7.38;;;4.45;;
21480;SDS011;10902;48.158;8.634;2022-09-25T15:41:43;7.00;;;4.45;;
21480;SDS011;10902;48.158;8.634;2022-09-25T15:44:19;6.45;;;4.43;;
21480;SDS011;10902;48.158;8.634;2022-09-25T15:46:50;7.50;;;4.38;;
21480;SDS011;10902;48.158;8.634;2022-09-25T15:52:02;6.85;;;4.80;;
21480;SDS011;10902;48.158;8.634;2022-09-25T15:57:04;7.90;;;4.53;;
21480;SDS011;10902;48.158;8.634;2022-09-25T15:59:42;6.75;;;4.70;;
21480;SDS011;10902;48.158;8.634;2022-09-25T16:02:29;7.88;;;4.70;;
21480;SDS011;10902;48.158;8.634;2022-09-25T16:05:31;8.00;;;4.95;;
21480;SDS011;10902;48.158;8.634;2022-09-25T16:08:16;6.57;;;4.50;;
21480;SDS011;10902;48.158;8.634;2022-09-25T16:10:48;6.35;;;4.68;;
21480;SDS011;10902;48.158;8.634;2022-09-25T16:13:26;7.13;;;4.25;;
21480;SDS011;10902;48.158;8.634;2022-09-25T16:15:52;6.72;;;4.70;;
21480;SDS011;10902;48.158;8.634;2022-09-25T16:23:38;7.10;;;4.63;;
21480;SDS011;10902;48.158;8.634;2022-09-25T16:26:16;7.68;;;5.07;;
21480;SDS011;10902;48.158;8.634;2022-09-25T16:31:35;6.93;;;4.50;;
21480;SDS011;10902;48.158;8.634;2022-09-25T16:34:03;7.70;;;5.30;;
21480;SDS011;10902;48.158;8.634;2022-09-25T16:36:36;7.80;;;5.40;;
21480;SDS011;10902;48.158;8.634;2022-09-25T16:41:34;9.48;;;5.60;;
21480;SDS011;10902;48.158;8.634;2022-09-25T16:44:09;9.23;;;5.57;;
21480;SDS011;10902;48.158;8.634;2022-09-25T16:46:39;7.50;;;5.22;;
21480;SDS011;10902;48.158;8.634;2022-09-25T16:49:06;8.18;;;5.07;;
21480;SDS011;10902;48.158;8.634;2022-09-25T16:51:31;8.90;;;5.90;;
21480;SDS011;10902;48.158;8.634;2022-09-25T16:53:58;8.30;;;5.80;;
21480;SDS011;10902;48.158;8.634;2022-09-25T16:56:28;8.27;;;6.10;;
21480;SDS011;10902;48.158;8.634;2022-09-25T16:58:56;8.10;;;5.68;;
21480;SDS011;10902;48.158;8.634;2022-09-25T17:01:23;9.15;;;5.95;;
21480;SDS011;10902;48.158;8.634;2022-09-25T17:03:50;7.57;;;6.03;;
21480;SDS011;10902;48.158;8.634;2022-09-25T17:06:17;9.27;;;6.07;;
21480;SDS011;10902;48.158;8.634;2022-09-25T17:08:47;7.68;;;5.90;;
21480;SDS011;10902;48.158;8.634;2022-09-25T17:11:17;9.10;;;6.07;;
21480;SDS011;10902;48.158;8.634;2022-09-25T17:13:45;9.57;;;6.57;;
21480;SDS011;10902;48.158;8.634;2022-09-25T17:16:11;9.27;;;7.15;;
21480;SDS011;10902;48.158;8.634;2022-09-25T17:18:37;9.88;;;6.30;;
21480;SDS011;10902;48.158;8.634;2022-09-25T17:21:09;7.78;;;6.15;;
21480;SDS011;10902;48.158;8.634;2022-09-25T17:23:37;10.85;;;6.85;;
21480;SDS011;10902;48.158;8.634;2022-09-25T17:26:04;8.73;;;7.05;;
21480;SDS011;10902;48.158;8.634;2022-09-25T17:28:37;9.93;;;6.45;;
21480;SDS011;10902;48.158;8.634;2022-09-25T17:31:03;9.10;;;7.00;;
21480;SDS011;10902;48.158;8.634;2022-09-25T17:33:28;8.90;;;7.28;;
21480;SDS011;10902;48.158;8.634;2022-09-25T17:35:57;10.30;;;7.30;;
21480;SDS011;10902;48.158;8.634;2022-09-25T17:38:30;9.75;;;7.40;;
21480;SDS011;10902;48.158;8.634;2022-09-25T17:40:58;8.50;;;6.70;;
21480;SDS011;10902;48.158;8.634;2022-09-25T17:43:25;8.73;;;6.57;;
21480;SDS011;10902;48.158;8.634;2022-09-25T17:48:19;8.75;;;6.57;;
21480;SDS011;10902;48.158;8.634;2022-09-25T17:50:48;8.85;;;7.05;;
21480;SDS011;10902;48.158;8.634;2022-09-25T17:53:17;9.55;;;6.45;;
21480;SDS011;10902;48.158;8.634;2022-09-25T17:55:44;8.15;;;6.38;;